sensor_id;sensor_type;location;lat;lon;timestamp;P1;durP1;ratioP1;P2;durP2;ratioP2
21862;SDS011;11096;51.338;12.524;2024-03-22T00:00:19;18.58;;;10.27;;
21862;SDS011;11096;51.338;12.524;2024-03-22T00:02:44;21.48;;;10.73;;
21862;SDS011;11096;51.338;12.524;2024-03-22T00:05:09;22.88;;;11.18;;
21862;SDS011;11096;51.338;12.524;2024-03-22T00:07:34;21.08;;;11.15;;
21862;SDS011;11096;51.338;12.524;2024-03-22T00:10:02;21.65;;;11.27;;
21862;SDS011;11096;51.338;12.524;2024-03-22T00:12:28;20.73;;;11.45;;
21862;SDS011;11096;51.338;12.524;2024-03-22T00:14:53;20.48;;;10.68;;
21862;SDS011;11096;51.338;12.524;2024-03-22T00:17:19;23.58;;;11.50;;
21862;SDS011;11096;51.338;12.524;2024-03-22T00:19:44;23.88;;;10.52;;
21862;SDS011;11096;51.338;12.524;2024-03-22T00:22:10;21.98;;;11.50;;
21862;SDS011;11096;51.338;12.524;2024-03-22T00:24:35;22.92;;;10.23;;
21862;SDS011;11096;51.338;12.524;2024-03-22T00:27:00;21.77;;;10.77;;
21862;SDS011;11096;51.338;12.524;2024-03-22T00:29:25;19.63;;;10.27;;
21862;SDS011;11096;51.338;12.524;2024-03-22T00:31:51;23.48;;;10.88;;
21862;SDS011;11096;51.338;12.524;2024-03-22T00:34:17;19.75;;;10.50;;
21862;SDS011;11096;51.338;12.524;2024-03-22T00:36:42;22.05;;;10.88;;
21862;SDS011;11096;51.338;12.524;2024-03-22T00:39:07;20.58;;;10.82;;
21862;SDS011;11096;51.338;12.524;2024-03-22T00:41:32;18.88;;;9.55;;
21862;SDS011;11096;51.338;12.524;2024-03-22T00:43:58;21.50;;;10.73;;
21862;SDS011;11096;51.338;12.524;2024-03-22T00:46:23;23.00;;;10.85;;
21862;SDS011;11096;51.338;12.524;2024-03-22T00:48:48;19.33;;;9.88;;
21862;SDS011;11096;51.338;12.524;2024-03-22T00:51:13;16.48;;;9.45;;
21862;SDS011;11096;51.338;12.524;2024-03-22T00:53:38;18.17;;;10.23;;
21862;SDS011;11096;51.338;12.524;2024-03-22T00:56:04;20.17;;;10.15;;
21862;SDS011;11096;51.338;12.524;2024-03-22T00:58:29;21.75;;;11.50;;
21862;SDS011;11096;51.338;12.524;2024-03-22T01:00:55;22.02;;;10.95;;
21862;SDS011;11096;51.338;12.524;2024-03-22T01:03:20;25.05;;;11.20;;
21862;SDS011;11096;51.338;12.524;2024-03-22T01:05:45;25.33;;;11.85;;
21862;SDS011;11096;51.338;12.524;2024-03-22T01:08:11;21.88;;;11.23;;
21862;SDS011;11096;51.338;12.524;2024-03-22T01:10:36;25.40;;;11.23;;
21862;SDS011;11096;51.338;12.524;2024-03-22T01:13:02;21.83;;;11.48;;
21862;SDS011;11096;51.338;12.524;2024-03-22T01:15:27;26.73;;;10.80;;
21862;SDS011;11096;51.338;12.524;2024-03-22T01:17:52;24.55;;;11.65;;
21862;SDS011;11096;51.338;12.524;2024-03-22T01:20:18;29.35;;;10.75;;
21862;SDS011;11096;51.338;12.524;2024-03-22T01:22:43;20.33;;;10.40;;
21862;SDS011;11096;51.338;12.524;2024-03-22T01:25:08;24.75;;;11.07;;
21862;SDS011;11096;51.338;12.524;2024-03-22T01:27:35;21.58;;;10.55;;
21862;SDS011;11096;51.338;12.524;2024-03-22T01:30:00;24.00;;;10.82;;
21862;SDS011;11096;51.338;12.524;2024-03-22T01:32:25;24.55;;;11.10;;
21862;SDS011;11096;51.338;12.524;2024-03-22T01:34:50;22.52;;;11.18;;
21862;SDS011;11096;51.338;12.524;2024-03-22T01:37:15;21.48;;;10.40;;
21862;SDS011;11096;51.338;12.524;2024-03-22T01:39:41;26.48;;;11.75;;
21862;SDS011;11096;51.338;12.524;2024-03-22T01:42:06;26.92;;;11.75;;
21862;SDS011;11096;51.338;12.524;2024-03-22T01:44:31;22.83;;;10.90;;
21862;SDS011;11096;51.338;12.524;2024-03-22T01:46:57;21.35;;;10.82;;
21862;SDS011;11096;51.338;12.524;2024-03-22T01:49:23;29.33;;;12.73;;
21862;SDS011;11096;51.338;12.524;2024-03-22T01:51:50;24.10;;;10.98;;
21862;SDS011;11096;51.338;12.524;2024-03-22T01:54:16;25.65;;;12.52;;
21862;SDS011;11096;51.338;12.524;2024-03-22T01:56:41;26.75;;;11.82;;
21862;SDS011;11096;51.338;12.524;2024-03-22T01:59:06;29.10;;;12.07;;
21862;SDS011;11096;51.338;12.524;2024-03-22T02:01:32;30.42;;;12.95;;
21862;SDS011;11096;51.338;12.524;2024-03-22T02:03:58;27.90;;;12.20;;
21862;SDS011;11096;51.338;12.524;2024-03-22T02:06:23;33.08;;;13.30;;
21862;SDS011;11096;51.338;12.524;2024-03-22T02:08:48;31.02;;;13.90;;
21862;SDS011;11096;51.338;12.524;2024-03-22T02:11:13;32.30;;;13.30;;
21862;SDS011;11096;51.338;12.524;2024-03-22T02:13:38;33.67;;;14.77;;
21862;SDS011;11096;51.338;12.524;2024-03-22T02:16:04;37.58;;;14.82;;
21862;SDS011;11096;51.338;12.524;2024-03-22T02:18:29;39.70;;;16.50;;
21862;SDS011;11096;51.338;12.524;2024-03-22T02:20:56;32.05;;;15.25;;
21862;SDS011;11096;51.338;12.524;2024-03-22T02:23:23;34.28;;;15.35;;
21862;SDS011;11096;51.338;12.524;2024-03-22T02:25:49;31.83;;;14.88;;
21862;SDS011;11096;51.338;12.524;2024-03-22T02:28:14;36.63;;;15.80;;
21862;SDS011;11096;51.338;12.524;2024-03-22T02:30:39;33.30;;;15.85;;
21862;SDS011;11096;51.338;12.524;2024-03-22T02:33:04;39.05;;;16.73;;
21862;SDS011;11096;51.338;12.524;2024-03-22T02:35:29;38.88;;;15.88;;
21862;SDS011;11096;51.338;12.524;2024-03-22T02:37:55;40.28;;;17.50;;
21862;SDS011;11096;51.338;12.524;2024-03-22T02:40:23;37.60;;;16.42;;
21862;SDS011;11096;51.338;12.524;2024-03-22T02:42:48;38.45;;;16.48;;
21862;SDS011;11096;51.338;12.524;2024-03-22T02:45:13;34.92;;;16.10;;
21862;SDS011;11096;51.338;12.524;2024-03-22T02:47:38;37.33;;;17.55;;
21862;SDS011;11096;51.338;12.524;2024-03-22T02:50:04;35.50;;;16.67;;
21862;SDS011;11096;51.338;12.524;2024-03-22T02:52:30;39.50;;;18.65;;
21862;SDS011;11096;51.338;12.524;2024-03-22T02:54:55;42.33;;;19.88;;
21862;SDS011;11096;51.338;12.524;2024-03-22T02:57:20;37.67;;;18.45;;
21862;SDS011;11096;51.338;12.524;2024-03-22T02:59:46;49.42;;;19.50;;
21862;SDS011;11096;51.338;12.524;2024-03-22T03:02:11;49.05;;;18.92;;
21862;SDS011;11096;51.338;12.524;2024-03-22T03:04:36;37.33;;;17.52;;
21862;SDS011;11096;51.338;12.524;2024-03-22T03:07:02;44.17;;;18.40;;
21862;SDS011;11096;51.338;12.524;2024-03-22T03:09:27;38.00;;;18.02;;
21862;SDS011;11096;51.338;12.524;2024-03-22T03:11:52;39.05;;;18.92;;
21862;SDS011;11096;51.338;12.524;2024-03-22T03:14:17;41.95;;;19.38;;
21862;SDS011;11096;51.338;12.524;2024-03-22T03:16:43;40.15;;;18.67;;
21862;SDS011;11096;51.338;12.524;2024-03-22T03:19:08;39.45;;;18.00;;
21862;SDS011;11096;51.338;12.524;2024-03-22T03:21:33;40.17;;;18.58;;
21862;SDS011;11096;51.338;12.524;2024-03-22T03:23:58;39.40;;;17.30;;
21862;SDS011;11096;51.338;12.524;2024-03-22T03:26:24;35.95;;;17.25;;
21862;SDS011;11096;51.338;12.524;2024-03-22T03:28:49;32.72;;;15.82;;
21862;SDS011;11096;51.338;12.524;2024-03-22T03:31:14;37.17;;;15.57;;
21862;SDS011;11096;51.338;12.524;2024-03-22T03:33:39;34.78;;;15.98;;
21862;SDS011;11096;51.338;12.524;2024-03-22T03:36:05;35.60;;;16.30;;
21862;SDS011;11096;51.338;12.524;2024-03-22T03:38:30;29.58;;;14.90;;
21862;SDS011;11096;51.338;12.524;2024-03-22T03:40:55;29.88;;;14.50;;
21862;SDS011;11096;51.338;12.524;2024-03-22T03:43:20;32.13;;;13.98;;
21862;SDS011;11096;51.338;12.524;2024-03-22T03:45:46;28.05;;;14.43;;
21862;SDS011;11096;51.338;12.524;2024-03-22T03:48:11;26.77;;;12.98;;
21862;SDS011;11096;51.338;12.524;2024-03-22T03:50:36;31.38;;;13.63;;
21862;SDS011;11096;51.338;12.524;2024-03-22T03:53:01;27.10;;;14.35;;
21862;SDS011;11096;51.338;12.524;2024-03-22T03:55:27;28.90;;;14.43;;
21862;SDS011;11096;51.338;12.524;2024-03-22T03:57:52;29.10;;;13.48;;
21862;SDS011;11096;51.338;12.524;2024-03-22T04:00:20;31.17;;;15.15;;
21862;SDS011;11096;51.338;12.524;2024-03-22T04:02:45;33.83;;;15.00;;
21862;SDS011;11096;51.338;12.524;2024-03-22T04:05:11;31.48;;;14.93;;
21862;SDS011;11096;51.338;12.524;2024-03-22T04:07:36;37.63;;;15.55;;
21862;SDS011;11096;51.338;12.524;2024-03-22T04:10:01;32.20;;;15.48;;
21862;SDS011;11096;51.338;12.524;2024-03-22T04:12:27;30.15;;;14.30;;
21862;SDS011;11096;51.338;12.524;2024-03-22T04:14:54;30.17;;;15.15;;
21862;SDS011;11096;51.338;12.524;2024-03-22T04:17:19;32.03;;;15.23;;
21862;SDS011;11096;51.338;12.524;2024-03-22T04:19:44;27.27;;;14.32;;
21862;SDS011;11096;51.338;12.524;2024-03-22T04:22:09;27.85;;;15.38;;
21862;SDS011;11096;51.338;12.524;2024-03-22T04:24:35;26.15;;;12.85;;
21862;SDS011;11096;51.338;12.524;2024-03-22T04:27:00;27.75;;;12.90;;
21862;SDS011;11096;51.338;12.524;2024-03-22T04:29:25;26.27;;;12.90;;
21862;SDS011;11096;51.338;12.524;2024-03-22T04:31:50;25.30;;;12.82;;
21862;SDS011;11096;51.338;12.524;2024-03-22T04:34:16;23.73;;;11.82;;
21862;SDS011;11096;51.338;12.524;2024-03-22T04:36:41;21.13;;;11.48;;
21862;SDS011;11096;51.338;12.524;2024-03-22T04:39:06;20.27;;;10.55;;
21862;SDS011;11096;51.338;12.524;2024-03-22T04:41:31;24.15;;;11.00;;
21862;SDS011;11096;51.338;12.524;2024-03-22T04:43:57;21.15;;;10.52;;
21862;SDS011;11096;51.338;12.524;2024-03-22T04:46:22;16.17;;;9.93;;
21862;SDS011;11096;51.338;12.524;2024-03-22T04:48:47;21.80;;;10.20;;
21862;SDS011;11096;51.338;12.524;2024-03-22T04:51:12;24.98;;;10.73;;
21862;SDS011;11096;51.338;12.524;2024-03-22T04:53:38;23.00;;;10.52;;
21862;SDS011;11096;51.338;12.524;2024-03-22T04:56:03;18.80;;;10.45;;
21862;SDS011;11096;51.338;12.524;2024-03-22T04:58:28;16.90;;;9.68;;
21862;SDS011;11096;51.338;12.524;2024-03-22T05:00:57;23.27;;;11.13;;
21862;SDS011;11096;51.338;12.524;2024-03-22T05:03:23;19.17;;;10.00;;
21862;SDS011;11096;51.338;12.524;2024-03-22T05:05:49;18.13;;;8.77;;
21862;SDS011;11096;51.338;12.524;2024-03-22T05:08:14;17.63;;;9.27;;
21862;SDS011;11096;51.338;12.524;2024-03-22T05:10:39;20.45;;;9.70;;
21862;SDS011;11096;51.338;12.524;2024-03-22T05:13:04;15.98;;;9.88;;
21862;SDS011;11096;51.338;12.524;2024-03-22T05:15:30;18.52;;;9.90;;
21862;SDS011;11096;51.338;12.524;2024-03-22T05:17:56;14.77;;;9.50;;
21862;SDS011;11096;51.338;12.524;2024-03-22T05:20:21;21.02;;;9.20;;
21862;SDS011;11096;51.338;12.524;2024-03-22T05:22:47;22.48;;;9.65;;
21862;SDS011;11096;51.338;12.524;2024-03-22T05:25:12;19.65;;;8.95;;
21862;SDS011;11096;51.338;12.524;2024-03-22T05:27:39;17.48;;;8.32;;
21862;SDS011;11096;51.338;12.524;2024-03-22T05:30:05;15.05;;;9.05;;
21862;SDS011;11096;51.338;12.524;2024-03-22T05:32:30;12.63;;;8.27;;
21862;SDS011;11096;51.338;12.524;2024-03-22T05:34:55;13.65;;;7.97;;
21862;SDS011;11096;51.338;12.524;2024-03-22T05:37:21;19.92;;;8.63;;
21862;SDS011;11096;51.338;12.524;2024-03-22T05:39:46;15.15;;;8.52;;
21862;SDS011;11096;51.338;12.524;2024-03-22T05:42:12;16.17;;;8.82;;
21862;SDS011;11096;51.338;12.524;2024-03-22T05:44:38;17.92;;;8.40;;
21862;SDS011;11096;51.338;12.524;2024-03-22T05:47:03;16.05;;;8.57;;
21862;SDS011;11096;51.338;12.524;2024-03-22T05:49:28;14.20;;;7.65;;
21862;SDS011;11096;51.338;12.524;2024-03-22T05:51:54;14.48;;;8.35;;
21862;SDS011;11096;51.338;12.524;2024-03-22T05:54:19;14.52;;;8.07;;
21862;SDS011;11096;51.338;12.524;2024-03-22T05:56:45;14.82;;;8.82;;
21862;SDS011;11096;51.338;12.524;2024-03-22T05:59:10;15.13;;;8.23;;
21862;SDS011;11096;51.338;12.524;2024-03-22T06:01:36;17.00;;;7.95;;
21862;SDS011;11096;51.338;12.524;2024-03-22T06:04:03;15.20;;;8.18;;
21862;SDS011;11096;51.338;12.524;2024-03-22T06:06:28;12.68;;;7.88;;
21862;SDS011;11096;51.338;12.524;2024-03-22T06:08:53;14.43;;;8.20;;
21862;SDS011;11096;51.338;12.524;2024-03-22T06:11:19;16.23;;;7.60;;
21862;SDS011;11096;51.338;12.524;2024-03-22T06:13:44;14.02;;;7.63;;
21862;SDS011;11096;51.338;12.524;2024-03-22T06:16:10;13.43;;;7.75;;
21862;SDS011;11096;51.338;12.524;2024-03-22T06:18:35;11.75;;;7.35;;
21862;SDS011;11096;51.338;12.524;2024-03-22T06:21:00;12.68;;;7.50;;
21862;SDS011;11096;51.338;12.524;2024-03-22T06:23:26;15.43;;;7.60;;
21862;SDS011;11096;51.338;12.524;2024-03-22T06:25:51;15.93;;;7.88;;
21862;SDS011;11096;51.338;12.524;2024-03-22T06:28:17;18.83;;;7.72;;
21862;SDS011;11096;51.338;12.524;2024-03-22T06:30:42;13.15;;;7.47;;
21862;SDS011;11096;51.338;12.524;2024-03-22T06:33:07;13.77;;;7.07;;
21862;SDS011;11096;51.338;12.524;2024-03-22T06:35:33;11.75;;;7.28;;
21862;SDS011;11096;51.338;12.524;2024-03-22T06:37:58;15.80;;;7.40;;
21862;SDS011;11096;51.338;12.524;2024-03-22T06:40:23;12.70;;;7.50;;
21862;SDS011;11096;51.338;12.524;2024-03-22T06:42:48;13.30;;;6.70;;
21862;SDS011;11096;51.338;12.524;2024-03-22T06:45:14;16.70;;;8.07;;
21862;SDS011;11096;51.338;12.524;2024-03-22T06:47:40;12.35;;;7.65;;
21862;SDS011;11096;51.338;12.524;2024-03-22T06:50:06;13.43;;;7.28;;
21862;SDS011;11096;51.338;12.524;2024-03-22T06:52:31;13.93;;;7.30;;
21862;SDS011;11096;51.338;12.524;2024-03-22T06:54:56;11.75;;;7.25;;
21862;SDS011;11096;51.338;12.524;2024-03-22T06:57:21;16.90;;;7.97;;
21862;SDS011;11096;51.338;12.524;2024-03-22T06:59:47;18.02;;;8.13;;
21862;SDS011;11096;51.338;12.524;2024-03-22T07:02:12;12.25;;;7.22;;
21862;SDS011;11096;51.338;12.524;2024-03-22T07:04:39;14.65;;;8.30;;
21862;SDS011;11096;51.338;12.524;2024-03-22T07:07:04;15.27;;;7.28;;
21862;SDS011;11096;51.338;12.524;2024-03-22T07:09:29;15.30;;;8.75;;
21862;SDS011;11096;51.338;12.524;2024-03-22T07:11:57;17.42;;;8.13;;
21862;SDS011;11096;51.338;12.524;2024-03-22T07:14:22;16.73;;;9.40;;
21862;SDS011;11096;51.338;12.524;2024-03-22T07:16:50;16.70;;;8.07;;
21862;SDS011;11096;51.338;12.524;2024-03-22T07:19:15;16.63;;;9.38;;
21862;SDS011;11096;51.338;12.524;2024-03-22T07:21:40;16.67;;;8.18;;
21862;SDS011;11096;51.338;12.524;2024-03-22T07:24:06;19.85;;;8.77;;
21862;SDS011;11096;51.338;12.524;2024-03-22T07:26:31;16.90;;;8.77;;
21862;SDS011;11096;51.338;12.524;2024-03-22T07:28:56;16.08;;;8.98;;
21862;SDS011;11096;51.338;12.524;2024-03-22T07:31:21;15.30;;;7.88;;
21862;SDS011;11096;51.338;12.524;2024-03-22T07:33:46;17.00;;;8.15;;
21862;SDS011;11096;51.338;12.524;2024-03-22T07:36:12;16.58;;;8.73;;
21862;SDS011;11096;51.338;12.524;2024-03-22T07:38:37;17.58;;;9.00;;
21862;SDS011;11096;51.338;12.524;2024-03-22T07:41:03;19.75;;;9.88;;
21862;SDS011;11096;51.338;12.524;2024-03-22T07:43:29;17.63;;;9.63;;
21862;SDS011;11096;51.338;12.524;2024-03-22T07:45:54;20.23;;;9.20;;
21862;SDS011;11096;51.338;12.524;2024-03-22T07:48:20;21.63;;;10.05;;
21862;SDS011;11096;51.338;12.524;2024-03-22T07:50:45;18.92;;;9.40;;
21862;SDS011;11096;51.338;12.524;2024-03-22T07:53:10;16.08;;;9.85;;
21862;SDS011;11096;51.338;12.524;2024-03-22T07:55:38;21.10;;;11.00;;
21862;SDS011;11096;51.338;12.524;2024-03-22T07:58:04;20.30;;;9.73;;
21862;SDS011;11096;51.338;12.524;2024-03-22T08:00:29;18.45;;;9.75;;
21862;SDS011;11096;51.338;12.524;2024-03-22T08:02:54;18.10;;;10.13;;
21862;SDS011;11096;51.338;12.524;2024-03-22T08:05:20;15.93;;;9.23;;
21862;SDS011;11096;51.338;12.524;2024-03-22T08:07:45;20.45;;;9.80;;
21862;SDS011;11096;51.338;12.524;2024-03-22T08:10:10;19.15;;;9.75;;
21862;SDS011;11096;51.338;12.524;2024-03-22T08:12:35;18.05;;;10.07;;
21862;SDS011;11096;51.338;12.524;2024-03-22T08:15:01;17.70;;;9.80;;
21862;SDS011;11096;51.338;12.524;2024-03-22T08:17:26;18.45;;;9.65;;
21862;SDS011;11096;51.338;12.524;2024-03-22T08:19:51;24.10;;;12.10;;
21862;SDS011;11096;51.338;12.524;2024-03-22T08:22:16;19.90;;;10.00;;
21862;SDS011;11096;51.338;12.524;2024-03-22T08:24:41;18.67;;;10.25;;
21862;SDS011;11096;51.338;12.524;2024-03-22T08:27:07;17.08;;;10.25;;
21862;SDS011;11096;51.338;12.524;2024-03-22T08:29:32;22.92;;;10.20;;
21862;SDS011;11096;51.338;12.524;2024-03-22T08:31:57;18.42;;;10.15;;
21862;SDS011;11096;51.338;12.524;2024-03-22T08:34:23;19.25;;;10.52;;
21862;SDS011;11096;51.338;12.524;2024-03-22T08:36:48;18.95;;;9.80;;
21862;SDS011;11096;51.338;12.524;2024-03-22T08:39:13;17.40;;;10.38;;
21862;SDS011;11096;51.338;12.524;2024-03-22T08:41:40;22.52;;;11.15;;
21862;SDS011;11096;51.338;12.524;2024-03-22T08:44:05;19.45;;;10.45;;
21862;SDS011;11096;51.338;12.524;2024-03-22T08:46:30;21.92;;;10.60;;
21862;SDS011;11096;51.338;12.524;2024-03-22T08:48:57;18.98;;;10.73;;
21862;SDS011;11096;51.338;12.524;2024-03-22T08:51:22;17.42;;;10.80;;
21862;SDS011;11096;51.338;12.524;2024-03-22T08:53:47;17.58;;;10.82;;
21862;SDS011;11096;51.338;12.524;2024-03-22T08:56:12;21.25;;;12.30;;
21862;SDS011;11096;51.338;12.524;2024-03-22T08:58:38;19.08;;;11.40;;
21862;SDS011;11096;51.338;12.524;2024-03-22T09:01:03;18.92;;;11.15;;
21862;SDS011;11096;51.338;12.524;2024-03-22T09:03:28;19.52;;;10.70;;
21862;SDS011;11096;51.338;12.524;2024-03-22T09:05:55;25.80;;;12.55;;
21862;SDS011;11096;51.338;12.524;2024-03-22T09:08:20;21.45;;;11.88;;
21862;SDS011;11096;51.338;12.524;2024-03-22T09:10:46;22.27;;;11.30;;
21862;SDS011;11096;51.338;12.524;2024-03-22T09:13:12;23.40;;;11.63;;
21862;SDS011;11096;51.338;12.524;2024-03-22T09:15:38;21.38;;;11.73;;
21862;SDS011;11096;51.338;12.524;2024-03-22T09:18:03;20.40;;;12.07;;
21862;SDS011;11096;51.338;12.524;2024-03-22T09:20:28;18.65;;;11.68;;
21862;SDS011;11096;51.338;12.524;2024-03-22T09:22:53;21.70;;;10.93;;
21862;SDS011;11096;51.338;12.524;2024-03-22T09:25:19;19.40;;;11.55;;
21862;SDS011;11096;51.338;12.524;2024-03-22T09:27:44;21.00;;;11.63;;
21862;SDS011;11096;51.338;12.524;2024-03-22T09:30:09;21.70;;;12.00;;
21862;SDS011;11096;51.338;12.524;2024-03-22T09:32:35;22.20;;;12.10;;
21862;SDS011;11096;51.338;12.524;2024-03-22T09:35:00;23.52;;;11.77;;
21862;SDS011;11096;51.338;12.524;2024-03-22T09:37:25;20.70;;;11.50;;
21862;SDS011;11096;51.338;12.524;2024-03-22T09:39:51;23.35;;;12.10;;
21862;SDS011;11096;51.338;12.524;2024-03-22T09:42:16;20.80;;;11.35;;
21862;SDS011;11096;51.338;12.524;2024-03-22T09:44:48;18.63;;;11.15;;
21862;SDS011;11096;51.338;12.524;2024-03-22T09:47:16;21.65;;;11.18;;
21862;SDS011;11096;51.338;12.524;2024-03-22T09:49:42;20.20;;;10.75;;
21862;SDS011;11096;51.338;12.524;2024-03-22T09:52:11;18.30;;;10.43;;
21862;SDS011;11096;51.338;12.524;2024-03-22T09:54:37;19.50;;;11.35;;
21862;SDS011;11096;51.338;12.524;2024-03-22T09:57:03;18.92;;;10.75;;
21862;SDS011;11096;51.338;12.524;2024-03-22T09:59:29;21.08;;;10.55;;
21862;SDS011;11096;51.338;12.524;2024-03-22T10:01:54;15.50;;;9.25;;
21862;SDS011;11096;51.338;12.524;2024-03-22T10:04:19;17.98;;;10.20;;
21862;SDS011;11096;51.338;12.524;2024-03-22T10:06:46;17.75;;;9.95;;
21862;SDS011;11096;51.338;12.524;2024-03-22T10:09:12;15.65;;;9.65;;
21862;SDS011;11096;51.338;12.524;2024-03-22T10:11:37;15.45;;;9.18;;
21862;SDS011;11096;51.338;12.524;2024-03-22T10:14:03;15.65;;;8.98;;
21862;SDS011;11096;51.338;12.524;2024-03-22T10:16:32;19.10;;;10.38;;
21862;SDS011;11096;51.338;12.524;2024-03-22T10:18:57;14.77;;;8.57;;
21862;SDS011;11096;51.338;12.524;2024-03-22T10:21:22;15.48;;;9.88;;
21862;SDS011;11096;51.338;12.524;2024-03-22T10:23:48;20.73;;;10.07;;
21862;SDS011;11096;51.338;12.524;2024-03-22T10:26:15;14.40;;;8.90;;
21862;SDS011;11096;51.338;12.524;2024-03-22T10:28:44;15.38;;;9.65;;
21862;SDS011;11096;51.338;12.524;2024-03-22T10:31:10;15.50;;;8.95;;
21862;SDS011;11096;51.338;12.524;2024-03-22T10:33:36;13.75;;;8.95;;
21862;SDS011;11096;51.338;12.524;2024-03-22T10:36:01;17.48;;;9.38;;
21862;SDS011;11096;51.338;12.524;2024-03-22T10:38:27;16.00;;;9.32;;
21862;SDS011;11096;51.338;12.524;2024-03-22T10:40:53;16.95;;;8.57;;
21862;SDS011;11096;51.338;12.524;2024-03-22T10:43:19;16.70;;;8.60;;
21862;SDS011;11096;51.338;12.524;2024-03-22T10:45:44;15.10;;;8.15;;
21862;SDS011;11096;51.338;12.524;2024-03-22T10:48:13;15.38;;;8.70;;
21862;SDS011;11096;51.338;12.524;2024-03-22T10:50:39;15.68;;;8.55;;
21862;SDS011;11096;51.338;12.524;2024-03-22T10:53:06;13.10;;;8.10;;
21862;SDS011;11096;51.338;12.524;2024-03-22T10:55:34;13.65;;;7.97;;
21862;SDS011;11096;51.338;12.524;2024-03-22T10:57:59;16.25;;;8.48;;
21862;SDS011;11096;51.338;12.524;2024-03-22T11:00:28;14.38;;;8.63;;
21862;SDS011;11096;51.338;12.524;2024-03-22T11:02:54;14.23;;;8.43;;
21862;SDS011;11096;51.338;12.524;2024-03-22T11:05:20;12.15;;;7.53;;
21862;SDS011;11096;51.338;12.524;2024-03-22T11:07:45;14.45;;;8.32;;
21862;SDS011;11096;51.338;12.524;2024-03-22T11:10:13;17.83;;;8.60;;
21862;SDS011;11096;51.338;12.524;2024-03-22T11:12:39;13.70;;;8.15;;
21862;SDS011;11096;51.338;12.524;2024-03-22T11:15:05;14.30;;;8.43;;
21862;SDS011;11096;51.338;12.524;2024-03-22T11:17:30;16.50;;;7.93;;
21862;SDS011;11096;51.338;12.524;2024-03-22T11:19:55;13.48;;;8.68;;
21862;SDS011;11096;51.338;12.524;2024-03-22T11:22:20;16.05;;;8.65;;
21862;SDS011;11096;51.338;12.524;2024-03-22T11:24:46;17.52;;;8.48;;
21862;SDS011;11096;51.338;12.524;2024-03-22T11:27:11;18.23;;;9.05;;
21862;SDS011;11096;51.338;12.524;2024-03-22T11:29:37;15.85;;;8.50;;
21862;SDS011;11096;51.338;12.524;2024-03-22T11:32:05;19.73;;;8.43;;
21862;SDS011;11096;51.338;12.524;2024-03-22T11:34:31;14.77;;;8.98;;
21862;SDS011;11096;51.338;12.524;2024-03-22T11:36:56;19.17;;;9.50;;
21862;SDS011;11096;51.338;12.524;2024-03-22T11:39:21;16.45;;;9.35;;
21862;SDS011;11096;51.338;12.524;2024-03-22T11:41:47;14.70;;;9.02;;
21862;SDS011;11096;51.338;12.524;2024-03-22T11:44:14;17.13;;;9.38;;
21862;SDS011;11096;51.338;12.524;2024-03-22T11:46:40;14.10;;;9.73;;
21862;SDS011;11096;51.338;12.524;2024-03-22T11:49:05;15.32;;;8.85;;
21862;SDS011;11096;51.338;12.524;2024-03-22T11:51:31;17.60;;;9.73;;
21862;SDS011;11096;51.338;12.524;2024-03-22T11:53:56;16.35;;;9.80;;
21862;SDS011;11096;51.338;12.524;2024-03-22T11:56:21;14.38;;;9.43;;
21862;SDS011;11096;51.338;12.524;2024-03-22T11:58:47;15.45;;;9.93;;
21862;SDS011;11096;51.338;12.524;2024-03-22T12:01:16;20.75;;;10.50;;
21862;SDS011;11096;51.338;12.524;2024-03-22T12:03:44;17.30;;;10.65;;
21862;SDS011;11096;51.338;12.524;2024-03-22T12:06:10;19.95;;;11.05;;
21862;SDS011;11096;51.338;12.524;2024-03-22T12:08:35;20.38;;;10.23;;
21862;SDS011;11096;51.338;12.524;2024-03-22T12:11:03;15.77;;;10.88;;
21862;SDS011;11096;51.338;12.524;2024-03-22T12:13:28;16.83;;;9.77;;
21862;SDS011;11096;51.338;12.524;2024-03-22T12:15:53;16.40;;;10.30;;
21862;SDS011;11096;51.338;12.524;2024-03-22T12:18:19;18.75;;;11.70;;
21862;SDS011;11096;51.338;12.524;2024-03-22T12:20:44;18.67;;;10.77;;
21862;SDS011;11096;51.338;12.524;2024-03-22T12:23:09;19.52;;;11.98;;
21862;SDS011;11096;51.338;12.524;2024-03-22T12:25:34;22.42;;;13.10;;
21862;SDS011;11096;51.338;12.524;2024-03-22T12:28:00;25.95;;;13.38;;
21862;SDS011;11096;51.338;12.524;2024-03-22T12:30:25;22.25;;;14.05;;
21862;SDS011;11096;51.338;12.524;2024-03-22T12:32:51;21.70;;;13.38;;
21862;SDS011;11096;51.338;12.524;2024-03-22T12:35:16;23.17;;;13.50;;
21862;SDS011;11096;51.338;12.524;2024-03-22T12:37:42;19.30;;;13.05;;
21862;SDS011;11096;51.338;12.524;2024-03-22T12:40:07;21.88;;;13.77;;
21862;SDS011;11096;51.338;12.524;2024-03-22T12:42:33;23.13;;;13.20;;
21862;SDS011;11096;51.338;12.524;2024-03-22T12:44:58;19.90;;;12.73;;
21862;SDS011;11096;51.338;12.524;2024-03-22T12:47:24;24.17;;;13.77;;
21862;SDS011;11096;51.338;12.524;2024-03-22T12:49:49;21.38;;;14.25;;
21862;SDS011;11096;51.338;12.524;2024-03-22T12:52:14;22.63;;;15.38;;
21862;SDS011;11096;51.338;12.524;2024-03-22T12:54:39;21.23;;;13.60;;
21862;SDS011;11096;51.338;12.524;2024-03-22T12:57:05;23.83;;;14.52;;
21862;SDS011;11096;51.338;12.524;2024-03-22T12:59:30;23.05;;;15.10;;
21862;SDS011;11096;51.338;12.524;2024-03-22T13:01:55;22.33;;;13.15;;
21862;SDS011;11096;51.338;12.524;2024-03-22T13:04:21;23.90;;;14.68;;
21862;SDS011;11096;51.338;12.524;2024-03-22T13:06:46;26.92;;;14.90;;
21862;SDS011;11096;51.338;12.524;2024-03-22T13:09:11;25.25;;;15.15;;
21862;SDS011;11096;51.338;12.524;2024-03-22T13:11:37;24.80;;;15.95;;
21862;SDS011;11096;51.338;12.524;2024-03-22T13:14:02;29.23;;;16.25;;
21862;SDS011;11096;51.338;12.524;2024-03-22T13:16:28;24.95;;;15.23;;
21862;SDS011;11096;51.338;12.524;2024-03-22T13:18:53;27.10;;;16.52;;
21862;SDS011;11096;51.338;12.524;2024-03-22T13:21:18;31.17;;;16.92;;
21862;SDS011;11096;51.338;12.524;2024-03-22T13:23:44;25.63;;;16.40;;
21862;SDS011;11096;51.338;12.524;2024-03-22T13:26:09;30.08;;;16.13;;
21862;SDS011;11096;51.338;12.524;2024-03-22T13:28:34;24.35;;;15.85;;
21862;SDS011;11096;51.338;12.524;2024-03-22T13:31:04;23.95;;;16.50;;
21862;SDS011;11096;51.338;12.524;2024-03-22T13:33:35;23.27;;;15.98;;
21862;SDS011;11096;51.338;12.524;2024-03-22T13:36:01;22.85;;;13.90;;
21862;SDS011;11096;51.338;12.524;2024-03-22T13:38:27;22.85;;;13.85;;
21862;SDS011;11096;51.338;12.524;2024-03-22T13:40:56;24.65;;;13.48;;
21862;SDS011;11096;51.338;12.524;2024-03-22T13:43:22;21.27;;;13.05;;
21862;SDS011;11096;51.338;12.524;2024-03-22T13:45:49;23.08;;;13.45;;
21862;SDS011;11096;51.338;12.524;2024-03-22T13:48:15;20.05;;;13.27;;
21862;SDS011;11096;51.338;12.524;2024-03-22T13:50:41;21.02;;;13.50;;
21862;SDS011;11096;51.338;12.524;2024-03-22T13:53:06;21.80;;;13.88;;
21862;SDS011;11096;51.338;12.524;2024-03-22T13:55:32;25.95;;;15.95;;
21862;SDS011;11096;51.338;12.524;2024-03-22T13:57:57;26.90;;;15.85;;
21862;SDS011;11096;51.338;12.524;2024-03-22T14:00:22;23.15;;;14.65;;
21862;SDS011;11096;51.338;12.524;2024-03-22T14:02:50;21.65;;;14.75;;